Hovedside
METAR-TAF:

METAR-TAF

Lufthavner :

Mahiljow, Hviterussland

breddegrad: 53-57-18N, lengdegrad: 030-05-42E, høyde over havet: 194 m

Gjeldene værobservasjon

Denne rapporten ble laget for 1 time og 14 minutter siden, klokken 04:00 UTC
Vind 2 kt fra skiftende retning
Temperatur 17°C
Luftfuktighet 94%
Trykk 1013 hPa
Sikt: 6000 m

METAR: UMOO 220400Z VRB01MPS 6000 NSC 17/16 Q1013 NOSIG

Tid: 08:14 (05:14 UTC)

Varsel

Denne rapporten ble laget for 18 timer og 8 minutter siden, klokken 11:06 UTC
Varsel gyldig fra 21. klokken 12 UTC til 21. klokken 21 UTC
Vind 6 kt fra Nord-nordvest med vindkast opp mot 16 kt
Sikt 10 km eller mer
Brutte skyer i en høyde av 2500 ft
Midlertidig
fra 21. klokken 12 UTC til 21. klokken 21 UTC
Vind 17 kt fra Vest med vindkast opp mot 27 kt
Sikt: 2100 m
Spredte skyer i en høyde av 700 ft
Brutte skyer i en høyde av 1700 ft, Bygeskyer.
torden, lett regn,

TAF: UMOO 211106Z 2112/2121 34003G08MPS 9999 BKN025 TEMPO 2112/2121 26009G14MPS 2100 -TSRA SCT007 BKN017CB

Værobservasjoner og værvarsel for over 4000 flyplasser (METAR- og TAF-rapporter).

Tilgjengelige stasjoner er representert av de røde og gule prikkene på kartet.

Hold musepekeren over prikken for å se navnet på stasjonen.

Klikk så for å se værobservasjoner og -varsler.

For å forandre kartet kan du klikke på den grønne knappen med svart kryss for å zoome inn, på den grønne knappen med strek for å zoome ut, eller på de grønne pilene for å se tilstøtende kart.


METAR-TAF: